sensor_id;sensor_type;location;lat;lon;timestamp;P1;durP1;ratioP1;P2;durP2;ratioP2
77449;SDS011;66536;53.150;18.172;2023-12-20T00:00:00;9.70;;;6.30;;
77449;SDS011;66536;53.150;18.172;2023-12-20T00:02:27;10.60;;;6.50;;
77449;SDS011;66536;53.150;18.172;2023-12-20T00:04:53;11.30;;;6.00;;
77449;SDS011;66536;53.150;18.172;2023-12-20T00:07:19;9.20;;;6.20;;
77449;SDS011;66536;53.150;18.172;2023-12-20T00:09:45;7.20;;;4.50;;
77449;SDS011;66536;53.150;18.172;2023-12-20T00:12:11;9.20;;;5.20;;
77449;SDS011;66536;53.150;18.172;2023-12-20T00:14:37;8.80;;;5.60;;
77449;SDS011;66536;53.150;18.172;2023-12-20T00:17:03;8.10;;;5.40;;
77449;SDS011;66536;53.150;18.172;2023-12-20T00:19:29;5.80;;;5.00;;
77449;SDS011;66536;53.150;18.172;2023-12-20T00:21:55;7.60;;;4.80;;
77449;SDS011;66536;53.150;18.172;2023-12-20T00:24:22;7.10;;;4.70;;
77449;SDS011;66536;53.150;18.172;2023-12-20T00:26:48;5.80;;;4.20;;
77449;SDS011;66536;53.150;18.172;2023-12-20T00:29:17;6.80;;;4.50;;
77449;SDS011;66536;53.150;18.172;2023-12-20T00:31:43;7.50;;;4.80;;
77449;SDS011;66536;53.150;18.172;2023-12-20T00:34:10;7.60;;;4.60;;
77449;SDS011;66536;53.150;18.172;2023-12-20T00:36:36;9.20;;;5.60;;
77449;SDS011;66536;53.150;18.172;2023-12-20T00:39:02;8.00;;;5.50;;
77449;SDS011;66536;53.150;18.172;2023-12-20T00:41:29;7.40;;;5.20;;
77449;SDS011;66536;53.150;18.172;2023-12-20T00:43:55;9.30;;;6.10;;
77449;SDS011;66536;53.150;18.172;2023-12-20T00:46:21;7.90;;;5.80;;
77449;SDS011;66536;53.150;18.172;2023-12-20T00:48:47;10.40;;;5.90;;
77449;SDS011;66536;53.150;18.172;2023-12-20T00:51:13;9.30;;;5.50;;
77449;SDS011;66536;53.150;18.172;2023-12-20T00:53:39;8.80;;;5.50;;
77449;SDS011;66536;53.150;18.172;2023-12-20T00:56:05;7.90;;;5.10;;
77449;SDS011;66536;53.150;18.172;2023-12-20T00:58:32;8.40;;;4.70;;
77449;SDS011;66536;53.150;18.172;2023-12-20T01:00:58;5.20;;;4.10;;
77449;SDS011;66536;53.150;18.172;2023-12-20T01:03:24;6.70;;;4.70;;
77449;SDS011;66536;53.150;18.172;2023-12-20T01:05:50;7.50;;;5.00;;
77449;SDS011;66536;53.150;18.172;2023-12-20T01:08:16;6.80;;;5.00;;
77449;SDS011;66536;53.150;18.172;2023-12-20T01:10:42;9.40;;;5.50;;
77449;SDS011;66536;53.150;18.172;2023-12-20T01:13:08;7.20;;;4.90;;
77449;SDS011;66536;53.150;18.172;2023-12-20T01:15:34;6.40;;;4.50;;
77449;SDS011;66536;53.150;18.172;2023-12-20T01:18:00;6.70;;;4.20;;
77449;SDS011;66536;53.150;18.172;2023-12-20T01:20:26;8.20;;;5.00;;
77449;SDS011;66536;53.150;18.172;2023-12-20T01:22:56;7.30;;;5.50;;
77449;SDS011;66536;53.150;18.172;2023-12-20T01:25:22;8.00;;;5.20;;
77449;SDS011;66536;53.150;18.172;2023-12-20T01:27:48;9.40;;;6.20;;
77449;SDS011;66536;53.150;18.172;2023-12-20T01:30:14;13.80;;;7.80;;
77449;SDS011;66536;53.150;18.172;2023-12-20T01:32:40;11.60;;;7.00;;
77449;SDS011;66536;53.150;18.172;2023-12-20T01:35:06;13.20;;;6.90;;
77449;SDS011;66536;53.150;18.172;2023-12-20T01:37:33;8.50;;;6.50;;
77449;SDS011;66536;53.150;18.172;2023-12-20T01:39:59;9.50;;;6.10;;
77449;SDS011;66536;53.150;18.172;2023-12-20T01:42:25;8.70;;;6.10;;
77449;SDS011;66536;53.150;18.172;2023-12-20T01:44:51;9.70;;;6.40;;
77449;SDS011;66536;53.150;18.172;2023-12-20T01:47:17;10.10;;;6.50;;
77449;SDS011;66536;53.150;18.172;2023-12-20T01:49:43;7.80;;;6.00;;
77449;SDS011;66536;53.150;18.172;2023-12-20T01:52:09;8.90;;;6.40;;
77449;SDS011;66536;53.150;18.172;2023-12-20T01:54:36;9.30;;;5.30;;
77449;SDS011;66536;53.150;18.172;2023-12-20T01:57:04;7.00;;;5.60;;
77449;SDS011;66536;53.150;18.172;2023-12-20T01:59:32;7.10;;;5.80;;
77449;SDS011;66536;53.150;18.172;2023-12-20T02:01:58;7.90;;;5.40;;
77449;SDS011;66536;53.150;18.172;2023-12-20T02:04:24;7.60;;;5.40;;
77449;SDS011;66536;53.150;18.172;2023-12-20T02:06:52;6.20;;;5.10;;
77449;SDS011;66536;53.150;18.172;2023-12-20T02:09:21;8.10;;;6.10;;
77449;SDS011;66536;53.150;18.172;2023-12-20T02:11:49;8.50;;;5.10;;
77449;SDS011;66536;53.150;18.172;2023-12-20T02:14:15;6.80;;;5.30;;
77449;SDS011;66536;53.150;18.172;2023-12-20T02:16:41;8.50;;;5.60;;
77449;SDS011;66536;53.150;18.172;2023-12-20T02:19:10;6.90;;;5.30;;
77449;SDS011;66536;53.150;18.172;2023-12-20T02:21:40;7.10;;;5.40;;
77449;SDS011;66536;53.150;18.172;2023-12-20T02:24:06;7.70;;;5.40;;
77449;SDS011;66536;53.150;18.172;2023-12-20T02:26:32;8.10;;;5.60;;
77449;SDS011;66536;53.150;18.172;2023-12-20T02:28:59;7.90;;;5.50;;
77449;SDS011;66536;53.150;18.172;2023-12-20T02:31:26;7.80;;;5.80;;
77449;SDS011;66536;53.150;18.172;2023-12-20T02:33:52;8.20;;;5.50;;
77449;SDS011;66536;53.150;18.172;2023-12-20T02:36:18;10.90;;;5.90;;
77449;SDS011;66536;53.150;18.172;2023-12-20T02:38:44;8.00;;;6.00;;
77449;SDS011;66536;53.150;18.172;2023-12-20T02:41:10;8.10;;;6.10;;
77449;SDS011;66536;53.150;18.172;2023-12-20T02:43:36;8.00;;;6.10;;
77449;SDS011;66536;53.150;18.172;2023-12-20T02:46:03;9.00;;;6.40;;
77449;SDS011;66536;53.150;18.172;2023-12-20T02:48:29;10.70;;;6.70;;
77449;SDS011;66536;53.150;18.172;2023-12-20T02:50:55;9.60;;;6.30;;
77449;SDS011;66536;53.150;18.172;2023-12-20T02:53:21;9.40;;;6.20;;
77449;SDS011;66536;53.150;18.172;2023-12-20T02:55:47;8.10;;;6.10;;
77449;SDS011;66536;53.150;18.172;2023-12-20T02:58:13;8.20;;;6.30;;
77449;SDS011;66536;53.150;18.172;2023-12-20T03:00:39;8.80;;;5.60;;
77449;SDS011;66536;53.150;18.172;2023-12-20T03:03:05;12.30;;;7.00;;
77449;SDS011;66536;53.150;18.172;2023-12-20T03:05:31;8.60;;;6.00;;
77449;SDS011;66536;53.150;18.172;2023-12-20T03:07:58;9.90;;;6.20;;
77449;SDS011;66536;53.150;18.172;2023-12-20T03:10:24;7.80;;;5.50;;
77449;SDS011;66536;53.150;18.172;2023-12-20T03:12:50;8.70;;;6.10;;
77449;SDS011;66536;53.150;18.172;2023-12-20T03:15:16;8.30;;;6.20;;
77449;SDS011;66536;53.150;18.172;2023-12-20T03:17:42;8.20;;;6.00;;
77449;SDS011;66536;53.150;18.172;2023-12-20T03:20:08;8.50;;;5.50;;
77449;SDS011;66536;53.150;18.172;2023-12-20T03:22:35;8.10;;;5.20;;
77449;SDS011;66536;53.150;18.172;2023-12-20T03:25:01;8.90;;;5.50;;
77449;SDS011;66536;53.150;18.172;2023-12-20T03:27:27;8.70;;;5.70;;
77449;SDS011;66536;53.150;18.172;2023-12-20T03:29:53;9.70;;;5.40;;
77449;SDS011;66536;53.150;18.172;2023-12-20T03:32:19;9.00;;;6.10;;
77449;SDS011;66536;53.150;18.172;2023-12-20T03:34:45;8.10;;;5.20;;
77449;SDS011;66536;53.150;18.172;2023-12-20T03:37:11;7.00;;;4.90;;
77449;SDS011;66536;53.150;18.172;2023-12-20T03:39:37;7.10;;;5.30;;
77449;SDS011;66536;53.150;18.172;2023-12-20T03:42:06;7.40;;;5.60;;
77449;SDS011;66536;53.150;18.172;2023-12-20T03:44:32;7.00;;;5.20;;
77449;SDS011;66536;53.150;18.172;2023-12-20T03:46:58;9.50;;;5.50;;
77449;SDS011;66536;53.150;18.172;2023-12-20T03:49:24;7.70;;;5.20;;
77449;SDS011;66536;53.150;18.172;2023-12-20T03:51:50;7.60;;;5.50;;
77449;SDS011;66536;53.150;18.172;2023-12-20T03:54:16;8.10;;;5.40;;
77449;SDS011;66536;53.150;18.172;2023-12-20T03:56:42;6.20;;;4.50;;
77449;SDS011;66536;53.150;18.172;2023-12-20T03:59:08;6.60;;;4.50;;
77449;SDS011;66536;53.150;18.172;2023-12-20T04:01:34;7.20;;;5.00;;
77449;SDS011;66536;53.150;18.172;2023-12-20T04:04:00;7.10;;;4.30;;
77449;SDS011;66536;53.150;18.172;2023-12-20T04:06:26;7.00;;;4.20;;
77449;SDS011;66536;53.150;18.172;2023-12-20T04:08:52;5.70;;;3.80;;
77449;SDS011;66536;53.150;18.172;2023-12-20T04:11:18;4.20;;;3.20;;
77449;SDS011;66536;53.150;18.172;2023-12-20T04:13:44;3.70;;;3.10;;
77449;SDS011;66536;53.150;18.172;2023-12-20T04:16:11;6.00;;;3.00;;
77449;SDS011;66536;53.150;18.172;2023-12-20T04:18:37;4.50;;;2.90;;
77449;SDS011;66536;53.150;18.172;2023-12-20T04:21:04;5.90;;;3.30;;
77449;SDS011;66536;53.150;18.172;2023-12-20T04:23:30;8.50;;;3.40;;
77449;SDS011;66536;53.150;18.172;2023-12-20T04:25:56;6.60;;;3.90;;
77449;SDS011;66536;53.150;18.172;2023-12-20T04:28:22;6.70;;;3.70;;
77449;SDS011;66536;53.150;18.172;2023-12-20T04:30:48;6.40;;;4.30;;
77449;SDS011;66536;53.150;18.172;2023-12-20T04:33:14;7.60;;;3.90;;
77449;SDS011;66536;53.150;18.172;2023-12-20T04:35:40;9.60;;;4.80;;
77449;SDS011;66536;53.150;18.172;2023-12-20T04:38:08;8.00;;;4.20;;
77449;SDS011;66536;53.150;18.172;2023-12-20T04:40:35;6.60;;;4.60;;
77449;SDS011;66536;53.150;18.172;2023-12-20T04:43:01;8.90;;;4.30;;
77449;SDS011;66536;53.150;18.172;2023-12-20T04:45:27;6.90;;;4.40;;
77449;SDS011;66536;53.150;18.172;2023-12-20T04:47:53;7.80;;;4.10;;
77449;SDS011;66536;53.150;18.172;2023-12-20T04:50:19;8.20;;;4.40;;
77449;SDS011;66536;53.150;18.172;2023-12-20T04:52:47;8.10;;;4.60;;
77449;SDS011;66536;53.150;18.172;2023-12-20T04:55:13;8.60;;;4.10;;
77449;SDS011;66536;53.150;18.172;2023-12-20T04:57:39;11.20;;;5.50;;
77449;SDS011;66536;53.150;18.172;2023-12-20T05:00:05;8.10;;;5.00;;
77449;SDS011;66536;53.150;18.172;2023-12-20T05:02:34;12.60;;;5.30;;
77449;SDS011;66536;53.150;18.172;2023-12-20T05:05:01;9.40;;;4.80;;
77449;SDS011;66536;53.150;18.172;2023-12-20T05:07:28;11.00;;;6.40;;
77449;SDS011;66536;53.150;18.172;2023-12-20T05:09:54;11.10;;;6.40;;
77449;SDS011;66536;53.150;18.172;2023-12-20T05:12:20;14.20;;;6.80;;
77449;SDS011;66536;53.150;18.172;2023-12-20T05:14:46;12.10;;;5.80;;
77449;SDS011;66536;53.150;18.172;2023-12-20T05:17:12;12.70;;;7.00;;
77449;SDS011;66536;53.150;18.172;2023-12-20T05:19:38;13.80;;;7.70;;
77449;SDS011;66536;53.150;18.172;2023-12-20T05:22:04;12.80;;;7.10;;
77449;SDS011;66536;53.150;18.172;2023-12-20T05:24:30;13.20;;;7.20;;
77449;SDS011;66536;53.150;18.172;2023-12-20T05:26:56;9.30;;;5.30;;
77449;SDS011;66536;53.150;18.172;2023-12-20T05:29:22;8.00;;;4.80;;
77449;SDS011;66536;53.150;18.172;2023-12-20T05:31:48;7.80;;;4.60;;
77449;SDS011;66536;53.150;18.172;2023-12-20T05:34:14;9.80;;;5.20;;
77449;SDS011;66536;53.150;18.172;2023-12-20T05:36:41;8.80;;;5.30;;
77449;SDS011;66536;53.150;18.172;2023-12-20T05:39:07;8.20;;;5.40;;
77449;SDS011;66536;53.150;18.172;2023-12-20T05:41:33;6.20;;;3.80;;
77449;SDS011;66536;53.150;18.172;2023-12-20T05:43:59;5.80;;;4.00;;
77449;SDS011;66536;53.150;18.172;2023-12-20T05:46:28;7.40;;;4.20;;
77449;SDS011;66536;53.150;18.172;2023-12-20T05:48:54;6.10;;;4.30;;
77449;SDS011;66536;53.150;18.172;2023-12-20T05:51:23;4.80;;;3.80;;
77449;SDS011;66536;53.150;18.172;2023-12-20T05:53:49;6.40;;;3.70;;
77449;SDS011;66536;53.150;18.172;2023-12-20T05:56:15;5.00;;;3.90;;
77449;SDS011;66536;53.150;18.172;2023-12-20T05:58:41;4.70;;;3.30;;
77449;SDS011;66536;53.150;18.172;2023-12-20T06:01:08;5.60;;;2.80;;
77449;SDS011;66536;53.150;18.172;2023-12-20T06:03:34;6.20;;;3.10;;
77449;SDS011;66536;53.150;18.172;2023-12-20T06:06:08;3.40;;;2.30;;
77449;SDS011;66536;53.150;18.172;2023-12-20T06:08:35;4.50;;;2.10;;
77449;SDS011;66536;53.150;18.172;2023-12-20T06:11:02;5.40;;;3.10;;
77449;SDS011;66536;53.150;18.172;2023-12-20T06:13:28;7.20;;;2.70;;
77449;SDS011;66536;53.150;18.172;2023-12-20T06:15:54;5.40;;;2.90;;
77449;SDS011;66536;53.150;18.172;2023-12-20T06:18:21;3.60;;;2.40;;
77449;SDS011;66536;53.150;18.172;2023-12-20T06:43:43;29.00;;;14.10;;
77449;SDS011;66536;53.150;18.172;2023-12-20T06:46:09;31.00;;;14.40;;
77449;SDS011;66536;53.150;18.172;2023-12-20T06:48:37;35.10;;;14.10;;
77449;SDS011;66536;53.150;18.172;2023-12-20T06:51:03;29.10;;;12.40;;
77449;SDS011;66536;53.150;18.172;2023-12-20T06:53:29;19.20;;;9.20;;
77449;SDS011;66536;53.150;18.172;2023-12-20T06:55:56;19.40;;;9.70;;
77449;SDS011;66536;53.150;18.172;2023-12-20T06:58:22;37.30;;;14.00;;
77449;SDS011;66536;53.150;18.172;2023-12-20T07:00:50;39.30;;;16.10;;
77449;SDS011;66536;53.150;18.172;2023-12-20T07:03:18;34.00;;;12.80;;
77449;SDS011;66536;53.150;18.172;2023-12-20T07:05:46;33.40;;;13.80;;
77449;SDS011;66536;53.150;18.172;2023-12-20T07:08:13;35.10;;;14.70;;
77449;SDS011;66536;53.150;18.172;2023-12-20T07:10:40;25.70;;;11.30;;
77449;SDS011;66536;53.150;18.172;2023-12-20T07:13:06;28.90;;;10.10;;
77449;SDS011;66536;53.150;18.172;2023-12-20T07:15:32;25.60;;;9.20;;
77449;SDS011;66536;53.150;18.172;2023-12-20T07:17:58;21.00;;;8.70;;
77449;SDS011;66536;53.150;18.172;2023-12-20T07:20:26;24.60;;;9.00;;
77449;SDS011;66536;53.150;18.172;2023-12-20T07:22:53;25.10;;;9.70;;
77449;SDS011;66536;53.150;18.172;2023-12-20T07:25:19;22.10;;;10.30;;
77449;SDS011;66536;53.150;18.172;2023-12-20T07:27:45;18.80;;;9.00;;
77449;SDS011;66536;53.150;18.172;2023-12-20T07:30:13;22.20;;;10.50;;
77449;SDS011;66536;53.150;18.172;2023-12-20T07:32:39;24.30;;;10.90;;
77449;SDS011;66536;53.150;18.172;2023-12-20T07:35:05;28.90;;;11.40;;
77449;SDS011;66536;53.150;18.172;2023-12-20T07:37:31;38.60;;;14.10;;
77449;SDS011;66536;53.150;18.172;2023-12-20T07:39:57;36.00;;;15.30;;
77449;SDS011;66536;53.150;18.172;2023-12-20T07:42:23;32.50;;;16.20;;
77449;SDS011;66536;53.150;18.172;2023-12-20T07:44:49;23.90;;;12.40;;
77449;SDS011;66536;53.150;18.172;2023-12-20T07:47:17;19.40;;;9.90;;
77449;SDS011;66536;53.150;18.172;2023-12-20T07:49:48;16.20;;;8.20;;
77449;SDS011;66536;53.150;18.172;2023-12-20T07:52:15;18.50;;;8.10;;
77449;SDS011;66536;53.150;18.172;2023-12-20T07:54:41;17.30;;;8.40;;
77449;SDS011;66536;53.150;18.172;2023-12-20T07:57:07;15.10;;;7.80;;
77449;SDS011;66536;53.150;18.172;2023-12-20T07:59:33;15.90;;;8.60;;
77449;SDS011;66536;53.150;18.172;2023-12-20T08:01:59;24.70;;;10.20;;
77449;SDS011;66536;53.150;18.172;2023-12-20T08:04:25;35.50;;;11.80;;
77449;SDS011;66536;53.150;18.172;2023-12-20T08:06:51;28.80;;;11.30;;
77449;SDS011;66536;53.150;18.172;2023-12-20T08:09:19;24.50;;;9.60;;
77449;SDS011;66536;53.150;18.172;2023-12-20T08:11:46;24.20;;;8.30;;
77449;SDS011;66536;53.150;18.172;2023-12-20T08:14:13;22.30;;;9.00;;
77449;SDS011;66536;53.150;18.172;2023-12-20T08:16:39;19.60;;;8.30;;
77449;SDS011;66536;53.150;18.172;2023-12-20T08:19:06;21.30;;;8.00;;
77449;SDS011;66536;53.150;18.172;2023-12-20T08:21:32;22.20;;;9.40;;
77449;SDS011;66536;53.150;18.172;2023-12-20T08:23:58;23.10;;;8.70;;
77449;SDS011;66536;53.150;18.172;2023-12-20T08:26:26;19.60;;;8.00;;
77449;SDS011;66536;53.150;18.172;2023-12-20T08:28:54;17.20;;;6.80;;
77449;SDS011;66536;53.150;18.172;2023-12-20T08:31:22;16.70;;;7.40;;
77449;SDS011;66536;53.150;18.172;2023-12-20T08:33:51;14.10;;;5.50;;
77449;SDS011;66536;53.150;18.172;2023-12-20T08:36:20;12.10;;;5.60;;
77449;SDS011;66536;53.150;18.172;2023-12-20T08:38:48;18.10;;;5.50;;
77449;SDS011;66536;53.150;18.172;2023-12-20T08:41:16;11.10;;;4.60;;
77449;SDS011;66536;53.150;18.172;2023-12-20T08:43:43;11.80;;;5.00;;
77449;SDS011;66536;53.150;18.172;2023-12-20T08:46:09;18.90;;;4.90;;
77449;SDS011;66536;53.150;18.172;2023-12-20T08:48:35;11.00;;;4.30;;
77449;SDS011;66536;53.150;18.172;2023-12-20T08:51:03;11.70;;;5.10;;
77449;SDS011;66536;53.150;18.172;2023-12-20T08:53:34;6.60;;;3.80;;
77449;SDS011;66536;53.150;18.172;2023-12-20T08:56:02;11.10;;;4.60;;
77449;SDS011;66536;53.150;18.172;2023-12-20T08:58:28;8.90;;;4.30;;
77449;SDS011;66536;53.150;18.172;2023-12-20T09:00:56;13.30;;;4.20;;
77449;SDS011;66536;53.150;18.172;2023-12-20T09:03:23;17.70;;;7.30;;
77449;SDS011;66536;53.150;18.172;2023-12-20T09:05:49;8.50;;;3.40;;
77449;SDS011;66536;53.150;18.172;2023-12-20T09:08:15;8.60;;;3.50;;
77449;SDS011;66536;53.150;18.172;2023-12-20T09:10:41;8.00;;;3.30;;
77449;SDS011;66536;53.150;18.172;2023-12-20T09:16:12;10.50;;;3.60;;
77449;SDS011;66536;53.150;18.172;2023-12-20T09:18:41;10.90;;;4.50;;
77449;SDS011;66536;53.150;18.172;2023-12-20T09:21:08;6.70;;;2.70;;
77449;SDS011;66536;53.150;18.172;2023-12-20T09:23:34;10.20;;;4.50;;
77449;SDS011;66536;53.150;18.172;2023-12-20T09:26:03;13.80;;;3.80;;
77449;SDS011;66536;53.150;18.172;2023-12-20T09:28:30;16.70;;;5.10;;
77449;SDS011;66536;53.150;18.172;2023-12-20T09:30:58;6.50;;;3.10;;
77449;SDS011;66536;53.150;18.172;2023-12-20T09:33:24;6.20;;;3.40;;
77449;SDS011;66536;53.150;18.172;2023-12-20T09:35:50;15.00;;;4.70;;
77449;SDS011;66536;53.150;18.172;2023-12-20T09:38:16;11.10;;;4.50;;
77449;SDS011;66536;53.150;18.172;2023-12-20T09:40:43;8.20;;;3.30;;
77449;SDS011;66536;53.150;18.172;2023-12-20T09:43:14;12.20;;;4.70;;
77449;SDS011;66536;53.150;18.172;2023-12-20T09:45:43;12.30;;;5.80;;
77449;SDS011;66536;53.150;18.172;2023-12-20T09:48:12;14.50;;;6.50;;
77449;SDS011;66536;53.150;18.172;2023-12-20T09:50:40;11.50;;;4.70;;
77449;SDS011;66536;53.150;18.172;2023-12-20T09:53:08;11.70;;;4.30;;
77449;SDS011;66536;53.150;18.172;2023-12-20T09:55:37;4.70;;;2.20;;
77449;SDS011;66536;53.150;18.172;2023-12-20T09:58:04;7.30;;;2.90;;
77449;SDS011;66536;53.150;18.172;2023-12-20T10:00:32;9.60;;;3.40;;
77449;SDS011;66536;53.150;18.172;2023-12-20T10:03:00;11.60;;;4.30;;
77449;SDS011;66536;53.150;18.172;2023-12-20T10:05:28;12.00;;;4.50;;
77449;SDS011;66536;53.150;18.172;2023-12-20T10:07:56;6.90;;;3.10;;
77449;SDS011;66536;53.150;18.172;2023-12-20T10:10:25;10.80;;;4.40;;
77449;SDS011;66536;53.150;18.172;2023-12-20T10:13:02;14.50;;;5.50;;
77449;SDS011;66536;53.150;18.172;2023-12-20T10:15:33;8.70;;;3.20;;
77449;SDS011;66536;53.150;18.172;2023-12-20T10:18:00;8.80;;;3.10;;
77449;SDS011;66536;53.150;18.172;2023-12-20T10:20:28;7.70;;;3.20;;
77449;SDS011;66536;53.150;18.172;2023-12-20T10:22:55;6.70;;;2.80;;
77449;SDS011;66536;53.150;18.172;2023-12-20T10:25:22;5.30;;;2.90;;
77449;SDS011;66536;53.150;18.172;2023-12-20T10:27:49;8.30;;;3.00;;
77449;SDS011;66536;53.150;18.172;2023-12-20T10:30:16;5.80;;;2.70;;
77449;SDS011;66536;53.150;18.172;2023-12-20T10:32:43;47.10;;;23.40;;
77449;SDS011;66536;53.150;18.172;2023-12-20T10:38:19;6.50;;;3.50;;
77449;SDS011;66536;53.150;18.172;2023-12-20T10:40:46;7.70;;;3.70;;
77449;SDS011;66536;53.150;18.172;2023-12-20T10:43:12;8.10;;;3.30;;
77449;SDS011;66536;53.150;18.172;2023-12-20T10:52:37;10.50;;;3.40;;
77449;SDS011;66536;53.150;18.172;2023-12-20T10:55:05;6.60;;;2.80;;
77449;SDS011;66536;53.150;18.172;2023-12-20T10:58:01;10.70;;;4.30;;
77449;SDS011;66536;53.150;18.172;2023-12-20T11:00:33;9.50;;;4.60;;
77449;SDS011;66536;53.150;18.172;2023-12-20T11:03:06;8.90;;;2.90;;
77449;SDS011;66536;53.150;18.172;2023-12-20T11:05:44;7.10;;;3.40;;
77449;SDS011;66536;53.150;18.172;2023-12-20T11:08:21;11.50;;;3.90;;
77449;SDS011;66536;53.150;18.172;2023-12-20T11:11:02;8.60;;;3.40;;
77449;SDS011;66536;53.150;18.172;2023-12-20T11:13:37;8.30;;;3.00;;
77449;SDS011;66536;53.150;18.172;2023-12-20T11:16:09;13.20;;;5.30;;
77449;SDS011;66536;53.150;18.172;2023-12-20T11:18:36;11.20;;;4.90;;
77449;SDS011;66536;53.150;18.172;2023-12-20T11:21:04;17.10;;;6.00;;
77449;SDS011;66536;53.150;18.172;2023-12-20T11:23:31;9.80;;;3.60;;
77449;SDS011;66536;53.150;18.172;2023-12-20T11:26:00;11.10;;;3.00;;
77449;SDS011;66536;53.150;18.172;2023-12-20T11:28:29;9.70;;;4.30;;
77449;SDS011;66536;53.150;18.172;2023-12-20T11:30:56;12.30;;;4.90;;
77449;SDS011;66536;53.150;18.172;2023-12-20T11:33:29;11.80;;;3.70;;
77449;SDS011;66536;53.150;18.172;2023-12-20T11:35:57;12.80;;;4.60;;
77449;SDS011;66536;53.150;18.172;2023-12-20T11:38:26;10.50;;;4.10;;
77449;SDS011;66536;53.150;18.172;2023-12-20T11:40:53;6.80;;;3.30;;
77449;SDS011;66536;53.150;18.172;2023-12-20T11:46:03;7.30;;;3.50;;
77449;SDS011;66536;53.150;18.172;2023-12-20T11:48:32;5.90;;;2.90;;
77449;SDS011;66536;53.150;18.172;2023-12-20T11:51:02;11.40;;;3.00;;
77449;SDS011;66536;53.150;18.172;2023-12-20T11:53:30;12.70;;;3.60;;
77449;SDS011;66536;53.150;18.172;2023-12-20T11:56:01;7.40;;;3.20;;
77449;SDS011;66536;53.150;18.172;2023-12-20T11:58:29;15.10;;;4.30;;
77449;SDS011;66536;53.150;18.172;2023-12-20T12:00:56;8.70;;;3.20;;
77449;SDS011;66536;53.150;18.172;2023-12-20T12:03:23;9.30;;;3.40;;
77449;SDS011;66536;53.150;18.172;2023-12-20T12:05:49;11.00;;;5.90;;
77449;SDS011;66536;53.150;18.172;2023-12-20T12:08:18;14.50;;;5.10;;
77449;SDS011;66536;53.150;18.172;2023-12-20T12:13:46;17.80;;;5.60;;
77449;SDS011;66536;53.150;18.172;2023-12-20T12:16:16;13.40;;;5.00;;
77449;SDS011;66536;53.150;18.172;2023-12-20T12:18:45;11.10;;;3.40;;
77449;SDS011;66536;53.150;18.172;2023-12-20T12:21:19;20.60;;;6.00;;
77449;SDS011;66536;53.150;18.172;2023-12-20T12:23:46;10.60;;;3.10;;
77449;SDS011;66536;53.150;18.172;2023-12-20T12:26:16;15.20;;;4.30;;
77449;SDS011;66536;53.150;18.172;2023-12-20T12:28:47;11.60;;;3.50;;
77449;SDS011;66536;53.150;18.172;2023-12-20T12:31:14;11.00;;;3.00;;
77449;SDS011;66536;53.150;18.172;2023-12-20T12:33:41;10.10;;;3.60;;
77449;SDS011;66536;53.150;18.172;2023-12-20T12:36:09;34.50;;;9.50;;
77449;SDS011;66536;53.150;18.172;2023-12-20T12:38:38;34.50;;;8.70;;
77449;SDS011;66536;53.150;18.172;2023-12-20T12:41:04;42.40;;;11.10;;
77449;SDS011;66536;53.150;18.172;2023-12-20T12:43:31;16.00;;;5.20;;
77449;SDS011;66536;53.150;18.172;2023-12-20T12:45:57;10.90;;;3.70;;
77449;SDS011;66536;53.150;18.172;2023-12-20T12:48:23;9.60;;;3.60;;
77449;SDS011;66536;53.150;18.172;2023-12-20T12:50:51;9.90;;;4.10;;
77449;SDS011;66536;53.150;18.172;2023-12-20T12:53:25;13.20;;;4.30;;
77449;SDS011;66536;53.150;18.172;2023-12-20T12:56:00;11.20;;;3.70;;
77449;SDS011;66536;53.150;18.172;2023-12-20T12:58:27;9.10;;;3.10;;
77449;SDS011;66536;53.150;18.172;2023-12-20T13:00:53;11.70;;;4.40;;
77449;SDS011;66536;53.150;18.172;2023-12-20T13:03:20;11.80;;;3.40;;
77449;SDS011;66536;53.150;18.172;2023-12-20T13:05:47;8.70;;;4.00;;
77449;SDS011;66536;53.150;18.172;2023-12-20T13:08:13;6.60;;;2.60;;
77449;SDS011;66536;53.150;18.172;2023-12-20T13:10:42;8.70;;;3.00;;
77449;SDS011;66536;53.150;18.172;2023-12-20T13:13:08;6.90;;;2.80;;
77449;SDS011;66536;53.150;18.172;2023-12-20T13:15:34;9.70;;;2.80;;
77449;SDS011;66536;53.150;18.172;2023-12-20T13:18:00;7.40;;;2.70;;
77449;SDS011;66536;53.150;18.172;2023-12-20T13:21:08;8.70;;;2.90;;
77449;SDS011;66536;53.150;18.172;2023-12-20T13:23:35;9.20;;;2.90;;
77449;SDS011;66536;53.150;18.172;2023-12-20T13:26:01;10.30;;;3.70;;
77449;SDS011;66536;53.150;18.172;2023-12-20T13:28:37;11.10;;;3.50;;
77449;SDS011;66536;53.150;18.172;2023-12-20T13:31:10;7.70;;;3.00;;
77449;SDS011;66536;53.150;18.172;2023-12-20T13:33:38;9.60;;;2.70;;
77449;SDS011;66536;53.150;18.172;2023-12-20T13:36:06;8.30;;;3.30;;
77449;SDS011;66536;53.150;18.172;2023-12-20T13:38:33;7.20;;;3.20;;
77449;SDS011;66536;53.150;18.172;2023-12-20T13:40:59;6.90;;;2.80;;
77449;SDS011;66536;53.150;18.172;2023-12-20T13:43:27;6.40;;;2.90;;
77449;SDS011;66536;53.150;18.172;2023-12-20T13:45:53;13.30;;;3.60;;
77449;SDS011;66536;53.150;18.172;2023-12-20T13:48:19;10.70;;;3.30;;
77449;SDS011;66536;53.150;18.172;2023-12-20T13:50:50;7.20;;;3.00;;
77449;SDS011;66536;53.150;18.172;2023-12-20T13:53:17;11.40;;;3.10;;
77449;SDS011;66536;53.150;18.172;2023-12-20T13:55:49;8.50;;;2.90;;
77449;SDS011;66536;53.150;18.172;2023-12-20T13:58:15;10.50;;;3.30;;
77449;SDS011;66536;53.150;18.172;2023-12-20T14:00:41;16.00;;;5.40;;
77449;SDS011;66536;53.150;18.172;2023-12-20T14:03:14;11.00;;;4.30;;
77449;SDS011;66536;53.150;18.172;2023-12-20T14:05:40;10.60;;;6.60;;
77449;SDS011;66536;53.150;18.172;2023-12-20T14:08:07;11.20;;;5.40;;
77449;SDS011;66536;53.150;18.172;2023-12-20T14:10:41;10.20;;;4.50;;
77449;SDS011;66536;53.150;18.172;2023-12-20T14:13:07;19.30;;;6.10;;
77449;SDS011;66536;53.150;18.172;2023-12-20T14:15:33;19.60;;;7.20;;
77449;SDS011;66536;53.150;18.172;2023-12-20T14:18:04;22.70;;;8.10;;
77449;SDS011;66536;53.150;18.172;2023-12-20T14:20:34;18.60;;;6.10;;
77449;SDS011;66536;53.150;18.172;2023-12-20T14:23:02;17.30;;;5.60;;
77449;SDS011;66536;53.150;18.172;2023-12-20T14:25:28;15.70;;;5.30;;
77449;SDS011;66536;53.150;18.172;2023-12-20T14:27:56;10.30;;;4.50;;
77449;SDS011;66536;53.150;18.172;2023-12-20T14:30:26;13.40;;;4.70;;
77449;SDS011;66536;53.150;18.172;2023-12-20T14:32:52;13.80;;;5.40;;
77449;SDS011;66536;53.150;18.172;2023-12-20T14:35:18;17.80;;;5.90;;
77449;SDS011;66536;53.150;18.172;2023-12-20T14:37:45;22.20;;;5.30;;
77449;SDS011;66536;53.150;18.172;2023-12-20T14:40:15;13.20;;;3.70;;
77449;SDS011;66536;53.150;18.172;2023-12-20T14:42:42;15.40;;;4.90;;
77449;SDS011;66536;53.150;18.172;2023-12-20T14:45:13;11.20;;;4.40;;
77449;SDS011;66536;53.150;18.172;2023-12-20T14:47:42;13.00;;;4.00;;
77449;SDS011;66536;53.150;18.172;2023-12-20T14:50:09;11.80;;;3.90;;
77449;SDS011;66536;53.150;18.172;2023-12-20T14:52:39;11.80;;;4.90;;
77449;SDS011;66536;53.150;18.172;2023-12-20T14:55:05;13.00;;;4.50;;
77449;SDS011;66536;53.150;18.172;2023-12-20T14:57:31;8.90;;;3.80;;
77449;SDS011;66536;53.150;18.172;2023-12-20T14:59:58;11.00;;;3.60;;
77449;SDS011;66536;53.150;18.172;2023-12-20T15:02:24;11.60;;;4.30;;
77449;SDS011;66536;53.150;18.172;2023-12-20T15:04:50;12.90;;;3.60;;
77449;SDS011;66536;53.150;18.172;2023-12-20T15:07:17;10.70;;;3.70;;
77449;SDS011;66536;53.150;18.172;2023-12-20T15:09:43;9.10;;;3.30;;